Time;durP1;ratioP1;P1;durP2;ratioP2;P2;SDS_P1;SDS_P2;PMS_P1;PMS_P2;Temp;Humidity;BMP_temperature;BMP_pressure;BME280_temperature;BME280_humidity;BME280_pressure;Samples;Min_cycle;Max_cycle;Signal;HPM_P1;HPM_P2
2022/07/20 00:00:48;;;;;;;16.40;8.75;;;19.70;99.50;;;;;;5120786;27;20556;-48
2022/07/20 00:03:14;;;;;;;13.48;9.13;;;19.70;99.60;;;;;;5116527;27;20390;-45
2022/07/20 00:05:41;;;;;;;12.98;8.63;;;19.60;99.70;;;;;;5115093;27;20019;-47
2022/07/20 00:08:07;;;;;;;14.52;8.88;;;19.60;99.80;;;;;;5113377;27;20023;-47
2022/07/20 00:13:19;;;;;;;15.45;8.75;;;19.60;99.90;;;;;;5117829;27;20504;-41
2022/07/20 00:15:45;;;;;;;16.35;8.32;;;19.70;99.50;;;;;;5131860;27;20027;-42
2022/07/20 00:18:11;;;;;;;14.50;8.80;;;19.70;99.70;;;;;;5131213;27;20007;-41
2022/07/20 00:20:38;;;;;;;16.30;9.07;;;19.80;99.70;;;;;;5122501;27;20016;-46
2022/07/20 00:23:04;;;;;;;15.52;9.15;;;19.80;99.40;;;;;;5119185;27;20448;-41
2022/07/20 00:25:30;;;;;;;16.90;8.82;;;19.80;99.20;;;;;;5133057;27;20016;-41
2022/07/20 00:27:56;;;;;;;13.05;9.23;;;19.80;99.10;;;;;;5132979;27;20055;-43
2022/07/20 00:30:23;;;;;;;12.90;8.68;;;19.80;99.00;;;;;;5131341;27;20030;-41
2022/07/20 00:32:49;;;;;;;15.57;8.80;;;19.80;99.00;;;;;;5130904;27;20031;-42
2022/07/20 00:35:16;;;;;;;13.75;9.18;;;19.70;99.10;;;;;;5130820;27;20410;-46
2022/07/20 00:37:43;;;;;;;13.27;8.70;;;19.60;98.90;;;;;;5131061;27;20374;-43
2022/07/20 00:40:11;;;;;;;14.68;9.13;;;19.60;99.10;;;;;;5130112;27;20027;-41
2022/07/20 00:42:37;;;;;;;12.38;8.82;;;19.50;99.40;;;;;;5131214;27;20076;-41
2022/07/20 00:45:05;;;;;;;17.83;8.70;;;19.50;99.30;;;;;;5131438;27;20489;-45
2022/07/20 00:47:31;;;;;;;14.10;8.68;;;19.50;99.30;;;;;;5119123;27;20047;-41
2022/07/20 00:49:57;;;;;;;13.57;8.75;;;19.50;99.50;;;;;;5106310;28;20428;-46
2022/07/20 00:52:23;;;;;;;17.33;9.63;;;19.50;99.60;;;;;;5112035;27;20055;-41
2022/07/20 00:54:50;;;;;;;16.52;9.75;;;19.40;99.50;;;;;;5132599;27;20023;-41
2022/07/20 00:57:17;;;;;;;14.90;9.95;;;19.40;99.80;;;;;;5113782;27;20023;-41
2022/07/20 00:59:43;;;;;;;14.07;8.98;;;19.40;99.80;;;;;;5133066;27;20034;-41
2022/07/20 01:02:09;;;;;;;15.52;10.23;;;19.40;99.40;;;;;;5131970;27;20427;-42
2022/07/20 01:04:35;;;;;;;16.52;9.73;;;19.40;99.30;;;;;;5114023;27;20381;-43
2022/07/20 01:07:01;;;;;;;13.68;9.65;;;19.40;99.50;;;;;;5112645;27;20106;-41
2022/07/20 01:09:27;;;;;;;13.30;9.27;;;19.40;99.40;;;;;;5096768;28;20501;-41
2022/07/20 01:11:53;;;;;;;17.25;9.85;;;19.40;99.40;;;;;;5091618;28;20032;-41
2022/07/20 01:14:19;;;;;;;12.93;8.82;;;19.40;99.20;;;;;;5091606;28;20043;-41
2022/07/20 01:16:44;;;;;;;13.57;9.82;;;19.40;99.20;;;;;;5073530;28;20474;-42
2022/07/20 01:19:10;;;;;;;14.90;9.68;;;19.30;99.30;;;;;;5091841;28;20020;-43
2022/07/20 01:21:40;;;;;;;11.45;8.82;;;19.30;99.50;;;;;;5091400;28;20176;-48
2022/07/20 01:24:09;;;;;;;15.23;9.75;;;19.20;99.40;;;;;;5091600;28;20020;-45
2022/07/20 01:26:37;;;;;;;13.13;9.35;;;19.20;99.40;;;;;;5091402;28;20039;-43
2022/07/20 01:29:03;;;;;;;16.15;9.60;;;19.30;99.80;;;;;;5091725;28;20082;-41
2022/07/20 01:31:29;;;;;;;16.10;10.23;;;19.20;99.80;;;;;;5091197;28;20077;-43
2022/07/20 01:33:55;;;;;;;13.02;9.05;;;19.20;99.90;;;;;;5091534;28;20044;-47
2022/07/20 01:36:21;;;;;;;15.52;9.05;;;19.20;99.70;;;;;;5103462;28;20020;-50
2022/07/20 01:38:50;;;;;;;13.55;8.85;;;19.20;99.90;;;;;;5093182;28;20020;-42
2022/07/20 01:41:16;;;;;;;15.98;10.00;;;19.10;99.90;;;;;;5102428;28;20023;-44
2022/07/20 01:43:42;;;;;;;14.05;9.13;;;19.10;99.90;;;;;;5094742;28;20680;-41
2022/07/20 01:46:08;;;;;;;13.82;9.88;;;19.10;99.90;;;;;;5091242;28;20527;-42
2022/07/20 01:48:33;;;;;;;15.40;9.57;;;19.10;99.90;;;;;;5072996;28;20119;-41
2022/07/20 01:50:59;;;;;;;13.50;9.32;;;19.10;99.80;;;;;;5093071;28;20028;-42
2022/07/20 01:53:25;;;;;;;14.02;9.43;;;19.10;99.90;;;;;;5110471;28;20463;-51
2022/07/20 01:55:52;;;;;;;18.73;9.80;;;19.10;99.90;;;;;;5111143;28;20012;-43
2022/07/20 01:58:18;;;;;;;13.50;9.05;;;19.00;99.90;;;;;;5111750;28;20028;-42
2022/07/20 02:00:44;;;;;;;11.90;9.25;;;19.00;99.90;;;;;;5111493;28;20015;-41
2022/07/20 02:03:09;;;;;;;14.23;9.35;;;19.00;99.90;;;;;;5111631;28;20020;-41
2022/07/20 02:05:35;;;;;;;17.90;9.57;;;19.00;99.90;;;;;;5092728;28;20023;-42
2022/07/20 02:08:01;;;;;;;15.35;9.43;;;19.00;99.90;;;;;;5092922;28;20020;-41
2022/07/20 02:10:27;;;;;;;15.75;9.38;;;19.00;99.90;;;;;;5111101;28;20379;-41
2022/07/20 02:12:53;;;;;;;16.73;9.73;;;19.20;99.90;;;;;;5111332;28;20088;-45
2022/07/20 02:18:11;;;;;;;13.93;8.77;;;19.30;99.90;;;;;;5111461;28;20030;-42
2022/07/20 02:20:38;;;;;;;13.68;8.68;;;19.30;99.90;;;;;;5111020;28;20040;-41
2022/07/20 02:23:05;;;;;;;12.90;8.23;;;19.30;99.90;;;;;;5111103;28;20039;-41
2022/07/20 02:25:31;;;;;;;16.10;9.00;;;19.30;99.90;;;;;;5092750;28;20020;-41
2022/07/20 02:27:56;;;;;;;16.92;8.27;;;19.40;99.90;;;;;;5111210;28;20028;-41
2022/07/20 02:30:22;;;;;;;15.27;8.10;;;19.40;99.90;;;;;;5111116;28;20689;-42
2022/07/20 02:32:48;;;;;;;11.68;8.02;;;19.40;99.90;;;;;;5110828;28;20032;-45
2022/07/20 02:35:14;;;;;;;14.75;7.90;;;19.50;99.90;;;;;;5110819;28;20024;-42
2022/07/20 02:37:40;;;;;;;13.70;7.38;;;19.40;99.90;;;;;;5110888;28;20114;-42
2022/07/20 02:40:06;;;;;;;15.45;8.32;;;19.50;99.90;;;;;;5111015;28;20028;-42
2022/07/20 02:42:32;;;;;;;15.80;8.18;;;19.50;99.90;;;;;;5110912;28;20036;-42
2022/07/20 02:44:57;;;;;;;14.20;7.63;;;19.60;99.90;;;;;;5110999;28;20531;-41
2022/07/20 02:47:23;;;;;;;15.27;8.32;;;19.60;99.90;;;;;;5110946;28;20031;-42
2022/07/20 02:49:49;;;;;;;15.93;8.32;;;19.60;99.90;;;;;;5110827;28;20068;-41
2022/07/20 02:52:14;;;;;;;16.75;7.78;;;19.60;99.90;;;;;;5110689;28;20131;-47
2022/07/20 02:54:40;;;;;;;16.10;7.88;;;19.60;99.90;;;;;;5110683;28;20110;-42
2022/07/20 02:57:06;;;;;;;14.65;7.85;;;19.50;99.90;;;;;;5110926;28;20145;-45
2022/07/20 02:59:31;;;;;;;12.63;7.90;;;19.50;99.90;;;;;;5110821;28;20042;-41
2022/07/20 03:01:57;;;;;;;14.57;8.65;;;19.50;99.90;;;;;;5111394;28;20024;-45
2022/07/20 03:04:22;;;;;;;20.92;8.57;;;19.50;99.90;;;;;;5114211;28;20023;-48
2022/07/20 03:06:48;;;;;;;16.77;8.15;;;19.50;99.90;;;;;;5113628;28;20432;-47
2022/07/20 03:09:14;;;;;;;17.40;8.43;;;19.50;99.90;;;;;;5114041;28;20028;-45
2022/07/20 03:11:40;;;;;;;17.60;8.85;;;19.60;99.90;;;;;;5114348;28;20067;-46
2022/07/20 03:14:06;;;;;;;14.98;8.10;;;19.60;99.90;;;;;;5114132;28;20501;-45
2022/07/20 03:16:31;;;;;;;14.82;7.93;;;19.60;99.90;;;;;;5114250;28;20027;-42
2022/07/20 03:18:57;;;;;;;14.48;7.85;;;19.60;99.90;;;;;;5096032;28;20390;-42
2022/07/20 03:21:25;;;;;;;16.95;8.10;;;19.60;99.90;;;;;;5114185;28;20493;-44
2022/07/20 03:23:51;;;;;;;14.93;8.10;;;19.60;99.90;;;;;;5114189;28;20098;-42
2022/07/20 03:26:18;;;;;;;14.77;8.30;;;19.70;99.90;;;;;;5114072;28;20542;-48
2022/07/20 03:28:44;;;;;;;15.32;8.40;;;19.60;99.90;;;;;;5113949;28;20608;-46
2022/07/20 03:31:10;;;;;;;14.18;7.90;;;19.60;99.90;;;;;;5114157;28;20123;-49
2022/07/20 03:33:36;;;;;;;14.05;7.70;;;19.70;99.90;;;;;;5113841;28;20501;-50
2022/07/20 03:36:02;;;;;;;14.27;8.38;;;19.60;99.90;;;;;;5113793;28;20068;-46
2022/07/20 03:38:28;;;;;;;13.32;8.05;;;19.70;99.90;;;;;;5114124;28;20035;-46
2022/07/20 03:40:53;;;;;;;19.45;8.85;;;19.70;99.90;;;;;;5113611;28;20020;-49
2022/07/20 03:43:19;;;;;;;15.27;9.05;;;19.70;99.90;;;;;;5113813;28;20019;-43
2022/07/20 03:45:45;;;;;;;15.65;8.20;;;19.70;99.90;;;;;;5113594;28;20023;-42
2022/07/20 03:48:10;;;;;;;18.02;8.98;;;19.70;99.90;;;;;;5113714;28;20672;-49
2022/07/20 03:50:36;;;;;;;20.45;9.35;;;19.80;99.90;;;;;;5113696;28;20047;-41
2022/07/20 03:53:02;;;;;;;17.73;9.63;;;19.80;99.90;;;;;;5113206;28;20046;-41
2022/07/20 03:55:28;;;;;;;18.60;9.57;;;19.80;99.90;;;;;;5113719;28;20107;-41
2022/07/20 03:57:54;;;;;;;13.93;9.00;;;19.90;99.90;;;;;;5113570;28;20119;-41
2022/07/20 04:00:19;;;;;;;16.33;10.23;;;19.90;99.90;;;;;;5113487;28;20012;-41
2022/07/20 04:02:45;;;;;;;15.13;9.55;;;19.90;99.90;;;;;;5095154;28;20492;-42
2022/07/20 04:05:11;;;;;;;18.13;9.63;;;19.90;99.90;;;;;;5112384;28;20054;-42
2022/07/20 04:07:36;;;;;;;19.83;9.63;;;19.90;99.90;;;;;;5113101;28;20119;-41
2022/07/20 04:10:03;;;;;;;19.70;10.18;;;19.90;99.90;;;;;;5113268;28;20031;-41
2022/07/20 04:12:29;;;;;;;22.52;9.63;;;19.90;99.90;;;;;;5113134;28;20081;-41
2022/07/20 04:14:55;;;;;;;18.15;9.90;;;19.90;99.90;;;;;;5113190;28;20027;-46
2022/07/20 04:17:22;;;;;;;20.13;10.05;;;19.90;99.90;;;;;;5112887;28;20069;-44
2022/07/20 04:19:48;;;;;;;17.10;9.82;;;19.90;99.90;;;;;;5112992;28;20156;-44
2022/07/20 04:22:14;;;;;;;22.45;9.75;;;19.90;99.90;;;;;;5112801;28;20015;-42
2022/07/20 04:24:40;;;;;;;17.85;10.02;;;19.90;99.90;;;;;;5113056;28;20031;-42
2022/07/20 04:27:06;;;;;;;18.85;10.50;;;19.80;99.90;;;;;;5112757;28;20382;-42
2022/07/20 04:29:32;;;;;;;18.10;10.02;;;19.80;99.90;;;;;;5113001;28;20019;-43
2022/07/20 04:31:58;;;;;;;17.90;10.25;;;19.80;99.90;;;;;;5112851;28;20032;-47
2022/07/20 04:34:24;;;;;;;15.75;9.95;;;19.80;99.90;;;;;;5112518;28;20398;-46
2022/07/20 04:36:49;;;;;;;18.38;10.10;;;19.80;99.90;;;;;;5112648;28;20030;-46
2022/07/20 04:39:16;;;;;;;21.35;9.85;;;19.80;99.90;;;;;;5112204;28;20026;-44
2022/07/20 04:41:41;;;;;;;22.23;10.52;;;19.80;99.90;;;;;;5112696;28;20020;-47
2022/07/20 04:44:08;;;;;;;17.88;10.60;;;19.70;99.90;;;;;;5112458;28;20030;-48
2022/07/20 04:46:34;;;;;;;16.40;10.15;;;19.70;99.90;;;;;;5112609;28;20051;-50
2022/07/20 04:48:59;;;;;;;17.67;9.60;;;19.70;99.90;;;;;;5112138;28;20024;-47
2022/07/20 04:51:25;;;;;;;17.45;10.00;;;19.70;99.90;;;;;;5112149;28;20043;-44
2022/07/20 04:53:51;;;;;;;18.83;9.77;;;19.70;99.90;;;;;;5112448;28;20036;-50
2022/07/20 04:56:18;;;;;;;16.33;9.15;;;19.70;99.90;;;;;;5112322;28;20015;-44
2022/07/20 04:58:50;;;;;;;19.02;9.95;;;19.80;99.90;;;;;;5112297;28;20059;-51
2022/07/20 05:01:16;;;;;;;17.95;9.07;;;19.80;99.90;;;;;;5093717;28;20019;-41
2022/07/20 05:03:42;;;;;;;15.65;8.55;;;19.80;99.90;;;;;;5112293;28;20042;-47
2022/07/20 05:06:07;;;;;;;18.98;8.90;;;19.90;99.90;;;;;;5112218;28;20471;-43
2022/07/20 05:08:33;;;;;;;16.15;8.10;;;19.90;99.90;;;;;;5111815;28;20088;-49
2022/07/20 05:10:59;;;;;;;14.52;8.48;;;20.00;99.90;;;;;;5111826;28;20048;-49
2022/07/20 05:13:24;;;;;;;17.70;9.18;;;19.90;99.90;;;;;;5111732;28;20047;-48
2022/07/20 05:15:50;;;;;;;20.35;8.48;;;19.90;99.90;;;;;;5111972;28;20011;-50
2022/07/20 05:18:16;;;;;;;15.52;8.55;;;19.90;99.90;;;;;;5112000;28;20024;-43
2022/07/20 05:20:41;;;;;;;16.08;8.07;;;19.90;99.90;;;;;;5111862;28;20011;-50
2022/07/20 05:23:07;;;;;;;14.80;8.10;;;19.90;99.90;;;;;;5111760;28;20032;-42
2022/07/20 05:25:33;;;;;;;15.07;8.00;;;19.90;99.90;;;;;;5111168;28;20110;-49
2022/07/20 05:27:59;;;;;;;22.63;8.75;;;20.00;99.90;;;;;;5111919;28;20031;-51
2022/07/20 05:30:24;;;;;;;17.05;9.02;;;20.00;99.90;;;;;;5093313;28;20067;-44
2022/07/20 05:32:50;;;;;;;19.00;8.50;;;19.90;99.90;;;;;;5111673;28;20153;-45
2022/07/20 05:35:16;;;;;;;18.80;9.80;;;19.90;99.90;;;;;;5111496;28;20030;-49
2022/07/20 05:37:41;;;;;;;14.00;8.40;;;19.80;99.90;;;;;;5111421;28;20032;-52
2022/07/20 05:40:08;;;;;;;22.70;9.13;;;19.80;99.90;;;;;;5111604;28;20107;-48
2022/07/20 05:42:33;;;;;;;21.23;8.93;;;19.80;99.90;;;;;;5111450;28;20016;-50
2022/07/20 05:44:59;;;;;;;19.25;9.63;;;19.80;99.90;;;;;;5111561;28;20047;-43
2022/07/20 05:47:25;;;;;;;20.42;10.35;;;19.80;99.90;;;;;;5111575;28;20019;-48
2022/07/20 05:49:50;;;;;;;19.88;10.00;;;19.70;99.90;;;;;;5111420;28;20089;-43
2022/07/20 05:52:16;;;;;;;19.13;8.85;;;19.70;99.90;;;;;;5111328;28;20047;-44
2022/07/20 05:54:42;;;;;;;21.08;9.50;;;19.80;99.90;;;;;;5111243;28;20048;-44
2022/07/20 05:57:08;;;;;;;20.10;9.70;;;19.80;99.90;;;;;;5111394;28;20066;-49
2022/07/20 05:59:33;;;;;;;17.90;9.10;;;19.80;99.90;;;;;;5111015;28;20024;-44
2022/07/20 06:01:59;;;;;;;21.77;9.32;;;19.80;99.90;;;;;;5111335;28;20077;-46
2022/07/20 06:04:25;;;;;;;18.20;9.07;;;19.90;99.90;;;;;;5110979;28;20024;-48
2022/07/20 06:06:50;;;;;;;16.15;9.00;;;19.90;99.90;;;;;;5110160;28;20059;-43
2022/07/20 06:09:16;;;;;;;21.98;9.10;;;19.90;99.90;;;;;;5111414;28;20102;-49
2022/07/20 06:11:42;;;;;;;19.98;8.68;;;20.00;99.90;;;;;;5111221;28;20032;-42
2022/07/20 06:14:08;;;;;;;15.93;8.40;;;20.00;99.90;;;;;;5111245;28;20439;-46
2022/07/20 06:16:33;;;;;;;21.40;8.98;;;20.00;99.90;;;;;;5111277;28;20024;-46
2022/07/20 06:18:59;;;;;;;17.05;7.47;;;20.00;99.90;;;;;;5110980;28;20081;-49
2022/07/20 06:21:25;;;;;;;16.67;7.70;;;20.10;99.90;;;;;;5093257;28;20073;-47
2022/07/20 06:23:50;;;;;;;15.75;7.70;;;20.20;99.90;;;;;;5111381;28;20106;-51
2022/07/20 06:26:16;;;;;;;14.82;7.50;;;20.30;99.90;;;;;;5111092;28;20024;-46
2022/07/20 06:28:42;;;;;;;17.63;7.63;;;20.30;99.90;;;;;;5111051;28;20028;-44
2022/07/20 06:31:07;;;;;;;14.40;7.00;;;20.60;99.90;;;;;;5111306;28;20024;-49
2022/07/20 06:33:33;;;;;;;16.02;6.18;;;20.90;99.90;;;;;;5110978;28;20075;-42
2022/07/20 06:36:00;;;;;;;19.63;6.53;;;21.30;99.90;;;;;;5110482;28;20042;-45
2022/07/20 06:38:26;;;;;;;14.57;5.22;;;22.00;98.50;;;;;;5114146;28;20062;-45
2022/07/20 06:40:51;;;;;;;15.48;5.30;;;22.40;96.70;;;;;;5114773;28;20043;-46
2022/07/20 06:43:17;;;;;;;12.55;5.05;;;22.30;96.40;;;;;;5114541;28;20027;-46
2022/07/20 06:45:43;;;;;;;15.23;5.00;;;22.10;96.70;;;;;;5113166;28;20405;-45
2022/07/20 06:48:08;;;;;;;14.13;5.72;;;21.90;96.90;;;;;;5110913;27;20027;-44
2022/07/20 06:50:34;;;;;;;12.52;5.22;;;21.70;97.30;;;;;;5127875;27;20024;-41
2022/07/20 06:53:00;;;;;;;11.65;4.85;;;21.50;98.00;;;;;;5128514;27;20067;-41
2022/07/20 06:55:26;;;;;;;16.17;5.65;;;21.50;98.30;;;;;;5126360;27;20047;-45
2022/07/20 06:57:51;;;;;;;12.93;5.20;;;21.50;98.50;;;;;;5126301;27;20099;-41
2022/07/20 07:00:17;;;;;;;14.93;5.00;;;21.40;98.40;;;;;;5085094;28;20020;-41
2022/07/20 07:02:42;;;;;;;9.43;4.50;;;21.40;98.30;;;;;;5105525;28;20019;-48
2022/07/20 07:05:09;;;;;;;11.32;4.82;;;21.40;98.30;;;;;;5114082;28;20016;-42
2022/07/20 07:07:35;;;;;;;11.85;5.25;;;21.20;98.30;;;;;;5114443;28;20023;-41
2022/07/20 07:10:01;;;;;;;10.73;4.75;;;21.20;98.30;;;;;;5114133;28;20028;-42
2022/07/20 07:12:26;;;;;;;9.95;4.22;;;21.20;98.30;;;;;;5114141;28;20476;-42
2022/07/20 07:14:52;;;;;;;11.73;4.05;;;21.30;98.20;;;;;;5113809;28;20027;-42
2022/07/20 07:17:18;;;;;;;11.57;4.10;;;21.30;98.10;;;;;;5113875;28;20012;-42
2022/07/20 07:19:44;;;;;;;16.70;4.68;;;21.40;97.90;;;;;;5113314;28;20023;-45
2022/07/20 07:22:09;;;;;;;9.82;3.65;;;21.70;97.70;;;;;;5114138;28;20108;-50
2022/07/20 07:24:35;;;;;;;9.00;3.28;;;22.10;96.90;;;;;;5114023;28;20462;-57
2022/07/20 07:27:02;;;;;;;13.13;3.42;;;22.90;94.80;;;;;;5109226;28;20031;-44
2022/07/20 07:29:28;;;;;;;9.05;3.00;;;23.90;94.90;;;;;;5113622;28;20020;-46
2022/07/20 07:31:58;;;;;;;8.57;2.58;;;25.10;91.20;;;;;;5111690;28;20031;-47
2022/07/20 07:34:26;;;;;;;9.23;3.50;;;25.90;90.20;;;;;;5099764;28;20109;-44
2022/07/20 07:36:51;;;;;;;8.43;2.45;;;26.60;86.30;;;;;;5112898;28;20024;-51
2022/07/20 07:39:17;;;;;;;6.72;2.25;;;27.10;84.70;;;;;;5120161;27;20035;-52
2022/07/20 07:41:43;;;;;;;7.63;2.42;;;27.70;80.40;;;;;;5122488;27;20023;-55
2022/07/20 07:44:09;;;;;;;6.75;2.50;;;27.80;79.50;;;;;;5114669;27;20016;-49
2022/07/20 07:46:35;;;;;;;7.53;2.60;;;27.60;79.90;;;;;;5112729;28;20030;-45
2022/07/20 07:49:00;;;;;;;9.15;2.75;;;27.70;79.70;;;;;;5112492;28;20016;-46
2022/07/20 07:51:26;;;;;;;8.48;2.42;;;27.70;79.00;;;;;;5113651;27;20035;-45
2022/07/20 07:53:52;;;;;;;7.57;2.20;;;27.90;78.70;;;;;;5112527;27;20398;-45
2022/07/20 07:56:18;;;;;;;9.48;2.75;;;28.40;80.00;;;;;;5114092;27;20024;-49
2022/07/20 07:58:43;;;;;;;9.77;2.30;;;29.00;76.30;;;;;;5119337;27;20038;-48
2022/07/20 08:01:09;;;;;;;6.03;2.42;;;29.50;74.20;;;;;;5115580;27;20023;-43
2022/07/20 08:03:35;;;;;;;7.50;2.30;;;30.00;74.20;;;;;;5094458;28;20032;-48
2022/07/20 08:06:01;;;;;;;13.05;2.60;;;30.70;73.50;;;;;;5111049;28;20023;-46
2022/07/20 08:08:27;;;;;;;8.55;2.50;;;30.80;69.70;;;;;;5114788;27;20130;-43
2022/07/20 08:10:53;;;;;;;7.82;2.72;;;30.20;70.20;;;;;;5111741;27;20019;-46
2022/07/20 08:13:18;;;;;;;7.85;2.33;;;29.90;68.80;;;;;;5113968;27;20035;-45
2022/07/20 08:15:44;;;;;;;7.45;2.30;;;28.90;70.60;;;;;;5113408;27;20415;-45
2022/07/20 08:18:10;;;;;;;10.05;2.60;;;28.30;72.70;;;;;;5113411;27;20595;-43
2022/07/20 08:20:36;;;;;;;6.43;2.22;;;28.10;75.00;;;;;;5113448;27;20493;-47
2022/07/20 08:23:01;;;;;;;9.07;2.75;;;27.70;76.10;;;;;;5094191;28;20043;-49
2022/07/20 08:25:28;;;;;;;5.88;1.85;;;27.90;76.10;;;;;;5117349;27;20027;-42
2022/07/20 08:27:53;;;;;;;10.48;2.58;;;28.40;74.50;;;;;;5112030;27;20039;-42
2022/07/20 08:30:20;;;;;;;10.45;2.42;;;28.80;78.00;;;;;;5114888;27;20015;-41
2022/07/20 08:32:45;;;;;;;5.82;2.00;;;29.40;72.60;;;;;;5114722;27;20437;-40
2022/07/20 08:35:11;;;;;;;6.57;1.98;;;29.80;71.00;;;;;;5116585;27;20037;-40
2022/07/20 08:37:38;;;;;;;5.85;2.00;;;30.50;68.00;;;;;;5125155;27;20629;-41
2022/07/20 08:40:05;;;;;;;5.60;1.70;;;30.80;64.60;;;;;;5110905;27;20096;-42
2022/07/20 08:42:31;;;;;;;6.37;1.70;;;30.70;64.40;;;;;;5096147;27;20113;-43
2022/07/20 08:44:57;;;;;;;7.20;2.13;;;31.40;64.80;;;;;;5112961;27;20157;-42
2022/07/20 08:47:27;;;;;;;8.55;1.70;;;31.50;62.40;;;;;;5113525;27;20024;-41
2022/07/20 08:49:53;;;;;;;7.38;2.17;;;32.00;59.60;;;;;;5106292;27;20027;-45
2022/07/20 08:52:18;;;;;;;9.45;2.63;;;31.90;58.30;;;;;;5109149;27;20050;-47
2022/07/20 08:54:45;;;;;;;6.43;2.10;;;32.10;58.20;;;;;;5110728;27;20023;-44
2022/07/20 08:57:15;;;;;;;5.00;1.85;;;32.10;59.10;;;;;;5112633;27;20103;-46
2022/07/20 08:59:45;;;;;;;8.10;2.20;;;31.70;57.50;;;;;;5112216;27;20050;-46
2022/07/20 09:02:11;;;;;;;6.63;1.83;;;31.60;62.90;;;;;;5112372;27;20118;-44
2022/07/20 09:04:49;;;;;;;7.75;2.33;;;31.70;60.00;;;;;;5114762;27;20028;-55
2022/07/20 09:07:15;;;;;;;6.95;2.20;;;31.20;60.50;;;;;;5108177;28;20370;-47
2022/07/20 09:09:41;;;;;;;6.10;1.92;;;31.00;59.10;;;;;;5117641;27;20023;-49
2022/07/20 09:12:07;;;;;;;6.45;2.10;;;30.90;59.70;;;;;;5122193;27;20470;-46
2022/07/20 09:14:37;;;;;;;7.68;1.70;;;30.90;61.30;;;;;;5107134;28;20031;-50
2022/07/20 09:17:14;;;;;;;6.13;1.95;;;31.20;60.70;;;;;;5120451;27;20050;-47
2022/07/20 09:20:00;;;;;;;9.50;2.45;;;31.20;57.50;;;;;;5117623;27;20072;-52
2022/07/20 09:22:34;;;;;;;4.88;1.63;;;31.40;58.50;;;;;;5111453;27;20015;-47
2022/07/20 09:25:22;;;;;;;7.75;1.90;;;31.50;56.70;;;;;;5112680;27;20039;-42
2022/07/20 09:27:47;;;;;;;4.78;1.63;;;31.30;55.90;;;;;;5109668;28;20028;-43
2022/07/20 09:30:17;;;;;;;7.20;1.83;;;31.40;57.90;;;;;;5107545;27;20269;-47
2022/07/20 09:32:52;;;;;;;7.30;2.20;;;31.30;58.30;;;;;;5106572;28;20039;-44
2022/07/20 09:35:20;;;;;;;6.70;1.70;;;30.90;58.90;;;;;;5107299;28;20027;-49
2022/07/20 09:37:46;;;;;;;6.67;2.00;;;31.00;57.40;;;;;;5111623;28;20016;-48
2022/07/20 09:40:12;;;;;;;5.25;1.73;;;31.30;59.10;;;;;;5112685;27;20022;-48
2022/07/20 09:42:40;;;;;;;5.53;1.52;;;31.70;57.20;;;;;;5111384;27;20065;-47
2022/07/20 09:45:29;;;;;;;4.85;1.73;;;32.00;54.00;;;;;;5120893;27;20023;-48
2022/07/20 09:48:02;;;;;;;5.05;1.52;;;31.70;53.30;;;;;;5121969;27;20115;-48
2022/07/20 09:50:32;;;;;;;5.18;1.88;;;31.30;53.90;;;;;;5109603;28;20043;-49
2022/07/20 09:52:58;;;;;;;5.47;1.50;;;31.00;54.20;;;;;;5107548;28;20031;-43
2022/07/20 09:55:26;;;;;;;5.68;1.70;;;30.70;55.70;;;;;;5107782;28;20042;-43
2022/07/20 09:57:52;;;;;;;7.28;1.60;;;30.70;58.80;;;;;;5108693;28;20020;-47
2022/07/20 10:00:21;;;;;;;5.82;1.70;;;31.00;57.10;;;;;;5092220;28;20024;-42
2022/07/20 10:02:48;;;;;;;4.85;1.80;;;30.90;56.90;;;;;;5099767;28;20023;-48
2022/07/20 10:05:18;;;;;;;6.35;2.03;;;31.10;55.00;;;;;;5103838;28;20028;-44
2022/07/20 10:07:45;;;;;;;4.47;1.60;;;31.40;57.20;;;;;;5104937;28;20027;-46
2022/07/20 10:10:11;;;;;;;5.10;2.05;;;31.70;54.90;;;;;;5105078;28;20054;-45
2022/07/20 10:12:38;;;;;;;6.07;1.83;;;31.90;55.00;;;;;;5112244;28;20023;-50
2022/07/20 10:15:11;;;;;;;6.47;1.95;;;31.70;53.30;;;;;;5117428;27;20073;-48
2022/07/20 10:17:39;;;;;;;7.22;2.42;;;31.40;52.70;;;;;;5114550;27;20073;-48
2022/07/20 10:20:27;;;;;;;4.32;1.83;;;31.70;53.50;;;;;;5111750;27;20036;-48
2022/07/20 10:23:14;;;;;;;6.75;1.73;;;31.80;51.70;;;;;;5110448;27;20024;-44
2022/07/20 10:25:41;;;;;;;4.60;2.10;;;31.60;53.90;;;;;;5117173;27;20046;-45
2022/07/20 10:28:27;;;;;;;6.97;2.70;;;31.50;54.40;;;;;;5125673;27;20119;-43
2022/07/20 10:30:55;;;;;;;5.75;2.15;;;31.60;51.60;;;;;;5117212;27;20560;-49
2022/07/20 10:33:22;;;;;;;8.15;2.67;;;31.60;53.10;;;;;;5110607;28;20093;-44
2022/07/20 10:35:49;;;;;;;7.22;2.35;;;31.70;52.80;;;;;;5118096;27;20497;-44
2022/07/20 10:38:18;;;;;;;8.32;2.28;;;31.90;52.00;;;;;;5122457;27;20031;-50
2022/07/20 10:44:20;;;;;;;5.80;2.20;;;31.60;51.80;;;;;;5126082;27;20517;-45
2022/07/20 10:46:46;;;;;;;6.07;1.90;;;31.30;54.90;;;;;;5115599;27;20019;-55
2022/07/20 10:49:12;;;;;;;6.40;2.00;;;31.20;54.60;;;;;;5121604;27;20019;-44
2022/07/20 10:51:38;;;;;;;5.85;2.33;;;31.10;54.00;;;;;;5085930;28;20160;-48
2022/07/20 10:54:32;;;;;;;10.05;2.85;;;31.00;55.90;;;;;;5112135;27;20122;-44
2022/07/20 10:56:58;;;;;;;6.47;2.25;;;30.70;54.80;;;;;;5107672;27;20125;-43
2022/07/20 10:59:24;;;;;;;6.78;2.38;;;30.50;57.20;;;;;;5113954;27;20083;-46
2022/07/20 11:01:50;;;;;;;8.60;2.90;;;30.50;55.90;;;;;;5115990;27;20050;-49
2022/07/20 11:04:16;;;;;;;7.35;2.50;;;30.30;54.50;;;;;;5112831;28;20024;-44
2022/07/20 11:06:42;;;;;;;6.95;2.85;;;30.50;58.30;;;;;;5115773;27;20024;-49
2022/07/20 11:09:08;;;;;;;9.57;2.50;;;30.50;55.70;;;;;;5119713;27;20031;-48
2022/07/20 11:11:36;;;;;;;7.28;2.40;;;30.60;56.40;;;;;;5115420;27;20019;-44
2022/07/20 11:14:05;;;;;;;6.95;2.90;;;29.90;58.60;;;;;;5115710;27;20047;-45
2022/07/20 11:16:32;;;;;;;7.00;1.98;;;29.60;58.50;;;;;;5116944;27;20016;-43
2022/07/20 11:18:59;;;;;;;6.50;2.28;;;29.40;59.10;;;;;;5126591;27;20111;-44
2022/07/20 11:21:32;;;;;;;6.70;2.08;;;29.30;59.90;;;;;;5112288;28;20049;-52
2022/07/20 11:23:58;;;;;;;8.05;2.22;;;29.10;61.20;;;;;;5114371;27;20024;-43
2022/07/20 11:26:24;;;;;;;6.40;1.92;;;29.50;61.70;;;;;;5113903;27;20035;-46
2022/07/20 11:28:56;;;;;;;5.57;1.95;;;30.00;60.30;;;;;;5113490;27;20020;-44
2022/07/20 11:31:25;;;;;;;4.95;1.90;;;30.10;59.50;;;;;;5113072;27;20106;-45
2022/07/20 11:33:55;;;;;;;6.75;1.70;;;30.30;57.30;;;;;;5116750;27;20024;-44
2022/07/20 11:36:21;;;;;;;7.43;2.60;;;29.70;57.70;;;;;;5108727;28;20371;-50
2022/07/20 11:38:55;;;;;;;5.88;2.25;;;29.30;59.30;;;;;;5113241;27;20020;-47
2022/07/20 11:41:24;;;;;;;6.68;2.45;;;29.40;60.80;;;;;;5127397;27;20062;-46
2022/07/20 11:43:51;;;;;;;;;;;29.80;61.30;;;;;;5124301;27;20073;-46
2022/07/20 11:46:21;;;;;;;7.05;2.15;;;30.40;59.60;;;;;;5129677;27;20411;-44
2022/07/20 11:48:54;;;;;;;4.10;1.67;;;30.70;55.90;;;;;;5126604;27;20038;-44
2022/07/20 11:51:20;;;;;;;6.82;1.77;;;30.70;60.50;;;;;;5115671;27;20110;-48
2022/07/20 11:53:45;;;;;;;6.57;1.70;;;30.70;56.00;;;;;;5088928;28;20126;-47
2022/07/20 11:56:15;;;;;;;4.97;2.05;;;30.20;58.50;;;;;;5089912;27;20023;-44
2022/07/20 11:58:42;;;;;;;7.82;2.08;;;30.20;59.30;;;;;;5092296;28;20428;-46
2022/07/20 12:01:14;;;;;;;5.88;1.98;;;30.40;57.10;;;;;;5110626;27;20382;-44
2022/07/20 12:03:47;;;;;;;5.80;2.10;;;30.30;56.20;;;;;;5108608;28;20023;-46
2022/07/20 12:06:14;;;;;;;6.10;2.25;;;30.00;58.60;;;;;;5110122;27;20115;-50
2022/07/20 12:08:41;;;;;;;6.35;1.95;;;30.10;60.30;;;;;;5121471;27;20015;-45
2022/07/20 12:11:08;;;;;;;7.95;2.75;;;30.20;57.20;;;;;;5113113;27;20055;-43
2022/07/20 12:13:49;;;;;;;4.32;1.90;;;30.20;59.20;;;;;;5111341;27;20028;-45
2022/07/20 12:16:16;;;;;;;5.88;1.95;;;30.60;56.70;;;;;;5109788;27;20031;-44
2022/07/20 12:18:45;;;;;;;6.18;2.05;;;30.20;56.30;;;;;;5111996;27;20042;-48
2022/07/20 12:21:14;;;;;;;7.47;2.15;;;29.80;57.80;;;;;;5114281;27;20070;-51
2022/07/20 12:23:43;;;;;;;7.15;2.20;;;29.40;58.40;;;;;;5115440;27;20023;-45
2022/07/20 12:26:35;;;;;;;7.35;2.17;;;28.90;60.70;;;;;;5111328;27;20019;-43
2022/07/20 12:29:20;;;;;;;7.75;2.53;;;28.60;61.40;;;;;;5109177;27;20439;-44
2022/07/20 12:32:04;;;;;;;6.65;2.50;;;28.30;61.10;;;;;;5108451;27;20027;-42
2022/07/20 12:34:31;;;;;;;7.72;2.60;;;27.90;61.30;;;;;;5103831;27;20035;-44
2022/07/20 12:36:58;;;;;;;5.82;2.53;;;27.60;62.20;;;;;;5111011;27;20051;-44
2022/07/20 12:39:47;;;;;;;7.38;2.80;;;27.40;65.50;;;;;;5116078;27;20039;-45
2022/07/20 12:42:26;;;;;;;7.82;2.75;;;27.20;64.80;;;;;;5114061;27;20032;-49
2022/07/20 12:45:03;;;;;;;5.50;2.50;;;27.10;66.60;;;;;;5110631;27;20059;-51
2022/07/20 12:47:29;;;;;;;8.25;2.30;;;27.00;68.50;;;;;;5112709;27;20028;-48
2022/07/20 12:49:55;;;;;;;8.45;2.60;;;26.90;70.50;;;;;;5111079;27;20016;-44